Time;durP1;ratioP1;P1;durP2;ratioP2;P2;SDS_P1;SDS_P2;PMS_P1;PMS_P2;Temp;Humidity;BMP_temperature;BMP_pressure;BME280_temperature;BME280_humidity;BME280_pressure;Samples;Min_cycle;Max_cycle;Signal;HPM_P1;HPM_P2
2021/12/16 00:01:41;;;;;;;53.00;42.63;;;0.80;99.90;;;;;;5071555;28;20043;-61
2021/12/16 00:08:50;;;;;;;47.75;36.33;;;0.70;99.90;;;;;;5069410;28;20063;-61
2021/12/16 00:35:40;;;;;;;37.78;31.05;;;0.50;99.90;;;;;;5069691;28;20395;-61
2021/12/16 00:38:06;;;;;;;33.85;30.23;;;0.70;99.90;;;;;;5069127;28;20096;-61
2021/12/16 00:40:32;;;;;;;32.90;29.10;;;0.90;99.90;;;;;;5071869;28;20187;-60
2021/12/16 00:43:11;;;;;;;38.88;33.35;;;0.80;99.90;;;;;;5071483;28;20471;-61
2021/12/16 00:55:58;;;;;;;35.17;30.40;;;1.90;99.90;;;;;;5054868;28;20031;-61
2021/12/16 00:58:31;;;;;;;26.75;23.73;;;1.80;99.90;;;;;;5071941;28;20024;-60
2021/12/16 01:10:03;;;;;;;19.40;17.40;;;2.30;99.90;;;;;;5006917;28;20053;-61
2021/12/16 01:37:17;;;;;;;15.23;13.63;;;3.30;99.90;;;;;;5007511;28;20041;-60
2021/12/16 01:45:40;;;;;;;13.30;12.00;;;3.30;99.90;;;;;;5004489;28;20124;-61
2021/12/16 01:49:04;;;;;;;12.98;11.68;;;3.30;99.90;;;;;;5067959;28;20095;-60
2021/12/16 01:51:22;;;;;;;14.00;12.55;;;3.40;99.90;;;;;;5067557;28;20494;-60
2021/12/16 01:59:02;;;;;;;13.20;11.73;;;3.20;99.90;;;;;;5068112;28;20021;-61
2021/12/16 02:01:31;;;;;;;13.23;11.82;;;3.20;99.90;;;;;;5069881;28;20451;-61
2021/12/16 02:04:14;;;;;;;12.65;11.35;;;3.30;99.90;;;;;;5069413;28;20036;-60
2021/12/16 02:09:29;;;;;;;12.85;11.40;;;3.00;99.90;;;;;;5069508;28;20561;-61
2021/12/16 02:12:08;;;;;;;21.77;17.73;;;3.30;99.90;;;;;;5067839;28;20044;-61
2021/12/16 02:34:04;;;;;;;;;;;3.20;99.90;;;;;;5067648;28;20045;-61
2021/12/16 02:36:31;;;;;;;13.27;11.88;;;3.20;99.90;;;;;;5067402;28;19908;-60
2021/12/16 02:39:27;;;;;;;16.70;14.93;;;3.30;99.90;;;;;;5067848;28;20063;-61
2021/12/16 02:42:03;;;;;;;12.70;11.40;;;3.20;99.90;;;;;;5065330;28;20064;-60
2021/12/16 02:44:40;;;;;;;12.23;10.57;;;3.20;99.90;;;;;;5067061;28;20075;-61
2021/12/16 02:49:56;;;;;;;14.75;13.25;;;3.20;99.90;;;;;;5052132;28;20119;-60
2021/12/16 02:52:24;;;;;;;12.35;11.15;;;3.40;99.90;;;;;;5070777;28;20091;-60
2021/12/16 02:54:51;;;;;;;12.40;10.40;;;3.30;99.90;;;;;;5069607;28;20025;-61
2021/12/16 02:57:18;;;;;;;13.48;12.07;;;3.30;99.90;;;;;;5071687;28;20040;-60
2021/12/16 02:59:45;;;;;;;16.00;14.40;;;3.10;99.90;;;;;;5072687;28;20028;-61
2021/12/16 03:02:16;;;;;;;12.70;11.40;;;3.10;99.90;;;;;;5072391;28;20095;-61
2021/12/16 03:04:45;;;;;;;12.95;11.70;;;3.10;99.90;;;;;;5072230;28;20037;-61
2021/12/16 03:07:12;;;;;;;12.00;10.80;;;3.10;99.90;;;;;;5075049;28;20032;-60
2021/12/16 03:15:23;;;;;;;13.35;12.00;;;3.00;99.90;;;;;;5069016;28;20021;-60
2021/12/16 03:20:36;;;;;;;11.40;10.25;;;3.10;99.90;;;;;;5068845;28;20483;-60
2021/12/16 03:31:25;;;;;;;13.15;11.57;;;3.10;99.90;;;;;;5010695;28;20041;-59
2021/12/16 03:34:12;;;;;;;12.20;10.88;;;3.00;99.90;;;;;;5010491;28;20074;-61
2021/12/16 03:39:40;;;;;;;12.13;10.93;;;3.10;99.90;;;;;;5008962;28;20443;-61
2021/12/16 03:42:06;;;;;;;11.70;10.48;;;3.00;99.90;;;;;;5008735;28;20245;-61
2021/12/16 03:44:49;;;;;;;12.05;10.85;;;2.90;99.90;;;;;;5008290;28;20468;-61
2021/12/16 03:47:17;;;;;;;11.52;10.32;;;3.00;99.90;;;;;;5008378;28;20024;-61
2021/12/16 03:49:43;;;;;;;12.65;11.32;;;3.00;99.90;;;;;;5009540;28;20517;-60
2021/12/16 03:52:10;;;;;;;14.13;10.85;;;2.90;99.90;;;;;;5011705;28;20396;-60
2021/12/16 03:54:41;;;;;;;11.93;10.73;;;3.00;99.90;;;;;;5008353;28;20050;-60
2021/12/16 03:57:12;;;;;;;12.65;10.90;;;2.90;99.90;;;;;;5008157;28;20377;-61
2021/12/16 03:59:39;;;;;;;12.20;10.38;;;2.90;99.90;;;;;;5007989;28;20084;-61
2021/12/16 04:02:17;;;;;;;12.32;11.10;;;3.00;99.90;;;;;;5024322;28;20029;-61
2021/12/16 04:04:43;;;;;;;12.02;10.73;;;2.90;99.90;;;;;;5071120;28;20112;-61
2021/12/16 04:07:10;;;;;;;12.10;10.80;;;3.00;99.90;;;;;;5072791;28;20100;-61
2021/12/16 04:09:36;;;;;;;11.07;9.98;;;3.00;99.90;;;;;;5069605;28;20509;-60
2021/12/16 04:12:09;;;;;;;11.57;10.38;;;2.90;99.90;;;;;;5069760;28;20104;-61
2021/12/16 04:14:36;;;;;;;12.32;11.05;;;2.80;99.90;;;;;;5069557;28;20479;-61
2021/12/16 04:17:05;;;;;;;12.05;10.85;;;2.80;99.90;;;;;;5071549;28;20021;-60
2021/12/16 04:19:33;;;;;;;11.13;10.02;;;3.00;99.90;;;;;;5072234;28;20040;-61
2021/12/16 04:22:16;;;;;;;11.70;9.98;;;2.80;99.90;;;;;;5071427;28;20028;-60
2021/12/16 04:24:45;;;;;;;14.20;11.43;;;2.70;99.90;;;;;;5069499;28;20418;-61
2021/12/16 04:27:11;;;;;;;11.85;10.65;;;2.70;99.90;;;;;;5069470;28;20047;-60
2021/12/16 04:29:37;;;;;;;12.13;9.98;;;2.70;99.90;;;;;;5069588;28;20052;-61
2021/12/16 04:32:04;;;;;;;13.80;11.38;;;2.80;99.90;;;;;;5069670;28;20554;-61
2021/12/16 04:34:30;;;;;;;11.50;10.30;;;2.70;99.90;;;;;;5071789;28;20032;-61
2021/12/16 04:36:57;;;;;;;12.23;10.95;;;2.70;99.90;;;;;;5071635;28;20032;-61
2021/12/16 04:39:27;;;;;;;11.82;10.63;;;2.50;99.90;;;;;;5069109;28;20090;-60
2021/12/16 04:41:55;;;;;;;12.75;11.23;;;2.70;99.90;;;;;;5069190;28;20035;-61
2021/12/16 04:44:23;;;;;;;12.23;10.95;;;2.60;99.90;;;;;;5068844;28;20060;-61
2021/12/16 04:46:49;;;;;;;11.88;10.68;;;2.70;99.90;;;;;;5055228;28;20021;-61
2021/12/16 04:49:16;;;;;;;13.48;11.35;;;2.70;99.90;;;;;;5069534;28;20025;-60
2021/12/16 04:51:45;;;;;;;13.00;11.73;;;2.70;99.90;;;;;;5069198;28;20067;-60
2021/12/16 04:54:12;;;;;;;11.73;10.55;;;2.60;99.90;;;;;;5069183;28;20028;-61
2021/12/16 04:56:40;;;;;;;13.68;12.20;;;2.70;99.90;;;;;;5070535;28;20032;-60
2021/12/16 04:59:10;;;;;;;12.98;11.57;;;2.60;99.90;;;;;;5069234;28;20020;-61
2021/12/16 05:01:38;;;;;;;13.00;11.52;;;2.70;99.90;;;;;;5071109;28;20048;-61
2021/12/16 05:04:05;;;;;;;11.85;10.65;;;2.60;99.90;;;;;;5071573;28;20384;-60
2021/12/16 05:06:31;;;;;;;12.65;11.35;;;2.60;99.90;;;;;;5069392;28;20017;-59
2021/12/16 05:08:58;;;;;;;13.73;11.85;;;2.60;99.90;;;;;;5068720;28;20509;-60
2021/12/16 05:11:24;;;;;;;12.65;11.35;;;2.50;99.90;;;;;;5068590;28;20040;-60
2021/12/16 05:13:49;;;;;;;13.32;11.95;;;2.60;99.90;;;;;;5069284;28;20383;-60
2021/12/16 05:16:15;;;;;;;12.80;11.50;;;2.60;99.90;;;;;;5072981;28;20094;-60
2021/12/16 05:18:42;;;;;;;18.40;16.50;;;2.60;99.90;;;;;;5069980;28;20448;-60
2021/12/16 05:21:40;;;;;;;20.40;18.20;;;2.60;99.90;;;;;;5068392;28;20032;-61
2021/12/16 05:26:44;;;;;;;20.85;18.48;;;2.50;99.90;;;;;;5068576;28;20873;-60
2021/12/16 05:29:10;;;;;;;23.05;20.00;;;2.50;99.90;;;;;;5068186;28;20031;-60
2021/12/16 05:31:37;;;;;;;26.85;22.55;;;2.40;99.90;;;;;;5070211;28;20036;-61
2021/12/16 05:34:04;;;;;;;19.13;16.92;;;2.60;99.90;;;;;;5070747;28;20478;-60
2021/12/16 05:36:30;;;;;;;17.80;15.57;;;2.50;99.90;;;;;;5069834;28;20526;-60
2021/12/16 05:38:56;;;;;;;17.35;15.45;;;2.50;99.90;;;;;;5068499;28;20107;-61
2021/12/16 05:41:23;;;;;;;18.60;14.13;;;2.40;99.90;;;;;;5068322;28;20024;-60
2021/12/16 05:43:50;;;;;;;20.40;17.55;;;2.40;99.90;;;;;;5052255;28;20036;-59
2021/12/16 05:46:18;;;;;;;22.00;18.42;;;2.40;99.90;;;;;;5068009;28;20103;-61
2021/12/16 05:48:46;;;;;;;28.65;23.50;;;2.40;99.90;;;;;;5068197;28;20421;-60
2021/12/16 05:51:16;;;;;;;32.88;29.15;;;2.50;99.90;;;;;;5067972;28;20016;-60
2021/12/16 05:53:44;;;;;;;24.63;21.90;;;2.40;99.90;;;;;;5067899;28;20024;-60
2021/12/16 05:56:10;;;;;;;18.80;16.30;;;2.30;99.90;;;;;;5067671;28;20021;-61
2021/12/16 05:58:37;;;;;;;17.55;15.18;;;2.30;99.90;;;;;;5069845;28;20119;-60
2021/12/16 06:01:10;;;;;;;23.63;21.15;;;2.40;99.90;;;;;;5070155;28;20031;-61
2021/12/16 06:03:37;;;;;;;16.42;14.82;;;2.40;99.90;;;;;;5068081;28;20055;-60
2021/12/16 06:06:03;;;;;;;20.63;18.45;;;2.40;99.90;;;;;;5067887;28;20497;-60
2021/12/16 06:08:29;;;;;;;19.42;17.30;;;2.40;99.90;;;;;;5067649;28;20437;-61
2021/12/16 06:13:30;;;;;;;20.27;18.17;;;2.40;99.90;;;;;;5070928;28;20421;-61
2021/12/16 06:27:05;;;;;;;14.52;13.02;;;2.20;99.90;;;;;;5067183;28;20035;-60
2021/12/16 06:29:32;;;;;;;14.85;12.90;;;2.20;99.90;;;;;;5067514;28;20020;-60
2021/12/16 06:31:58;;;;;;;15.48;13.07;;;2.20;99.90;;;;;;5068676;28;20055;-60
2021/12/16 06:34:24;;;;;;;25.98;22.52;;;2.30;99.90;;;;;;5070336;28;20021;-60
2021/12/16 06:36:50;;;;;;;43.65;36.15;;;2.20;99.90;;;;;;5068605;28;20058;-60
2021/12/16 06:39:16;;;;;;;40.58;32.88;;;2.20;99.90;;;;;;5066972;28;20048;-60
2021/12/16 06:41:42;;;;;;;33.95;28.98;;;2.20;99.90;;;;;;5067192;28;20093;-60
2021/12/16 06:44:36;;;;;;;27.58;24.67;;;2.20;99.90;;;;;;5067464;28;20040;-61
2021/12/16 06:47:02;;;;;;;25.35;22.42;;;2.30;99.90;;;;;;5052281;28;20041;-60
2021/12/16 06:49:30;;;;;;;20.42;18.30;;;2.20;99.90;;;;;;5069739;28;20117;-60
2021/12/16 06:52:03;;;;;;;17.00;15.20;;;2.20;99.90;;;;;;5069276;28;20146;-59
2021/12/16 06:54:35;;;;;;;26.50;23.73;;;2.20;99.90;;;;;;5068065;28;20047;-61
2021/12/16 07:00:02;;;;;;;40.25;34.83;;;2.00;99.90;;;;;;5067745;28;20513;-60
2021/12/16 07:05:13;;;;;;;24.00;20.42;;;1.80;99.90;;;;;;5068022;28;20044;-60
2021/12/16 07:07:39;;;;;;;15.60;13.70;;;1.70;99.90;;;;;;5068833;28;20029;-60
2021/12/16 07:10:08;;;;;;;17.02;14.52;;;1.80;99.90;;;;;;5069314;28;20032;-60
2021/12/16 07:12:36;;;;;;;14.73;13.20;;;2.10;99.90;;;;;;5067231;28;20129;-60
2021/12/16 07:15:10;;;;;;;15.75;13.50;;;2.10;99.90;;;;;;5066813;28;20509;-60
2021/12/16 07:17:37;;;;;;;14.93;13.30;;;2.00;99.90;;;;;;5066802;28;20051;-60
2021/12/16 07:20:05;;;;;;;14.00;12.52;;;2.00;99.90;;;;;;5067134;28;20020;-60
2021/12/16 07:22:33;;;;;;;13.95;12.45;;;2.10;99.90;;;;;;5069454;28;20078;-59
2021/12/16 07:25:00;;;;;;;13.43;12.02;;;2.20;99.90;;;;;;5068690;28;20107;-60
2021/12/16 07:27:25;;;;;;;14.70;13.10;;;2.20;99.90;;;;;;5067122;28;20037;-60
2021/12/16 07:29:51;;;;;;;16.00;14.30;;;2.10;99.90;;;;;;5066937;28;20106;-59
2021/12/16 07:32:17;;;;;;;15.07;13.57;;;2.10;99.90;;;;;;5068658;28;20043;-60
2021/12/16 07:34:42;;;;;;;15.60;13.50;;;2.10;99.90;;;;;;5068310;28;20094;-59
2021/12/16 07:37:08;;;;;;;16.02;13.32;;;2.00;99.90;;;;;;5069876;28;20032;-60
2021/12/16 07:39:42;;;;;;;18.75;14.70;;;2.00;99.90;;;;;;5066171;28;20035;-59
2021/12/16 07:42:10;;;;;;;;;;;2.10;99.90;;;;;;5068372;28;20074;-58
2021/12/16 07:44:36;;;;;;;17.33;14.57;;;2.00;99.90;;;;;;5070647;28;19920;-59
2021/12/16 07:47:06;;;;;;;16.17;13.13;;;2.00;99.90;;;;;;5070372;28;20039;-59
2021/12/16 07:49:39;;;;;;;16.95;14.15;;;2.10;99.90;;;;;;5072578;28;20024;-59
2021/12/16 07:52:06;;;;;;;;;;;2.10;99.90;;;;;;5073051;28;20063;-58
2021/12/16 07:54:31;;;;;;;17.83;14.48;;;2.10;99.90;;;;;;5069762;28;19912;-60
2021/12/16 07:56:59;;;;;;;16.60;14.05;;;2.10;99.90;;;;;;5070014;28;20094;-60
2021/12/16 07:59:27;;;;;;;16.20;13.55;;;2.10;99.90;;;;;;5070130;28;20031;-59
2021/12/16 08:01:54;;;;;;;14.93;12.82;;;2.10;99.90;;;;;;5070906;28;20048;-59
2021/12/16 08:04:26;;;;;;;16.75;12.63;;;2.10;99.90;;;;;;5071823;28;20032;-59
2021/12/16 08:06:54;;;;;;;13.88;12.13;;;2.20;99.90;;;;;;5070315;28;20029;-59
2021/12/16 08:09:20;;;;;;;13.70;12.00;;;2.20;99.90;;;;;;5068889;28;20035;-59
2021/12/16 08:11:48;;;;;;;13.88;12.38;;;2.20;99.90;;;;;;5069148;28;20120;-59
2021/12/16 08:14:15;;;;;;;14.23;11.90;;;2.40;99.90;;;;;;5071434;28;20494;-59
2021/12/16 08:16:41;;;;;;;16.05;14.38;;;2.90;99.90;;;;;;5069907;28;20093;-59
2021/12/16 08:19:08;;;;;;;10.82;9.73;;;4.00;99.90;;;;;;5071276;28;20032;-58
2021/12/16 08:21:36;;;;;;;10.98;9.88;;;4.20;99.90;;;;;;5069030;28;20025;-59
2021/12/16 08:24:07;;;;;;;10.82;9.23;;;4.80;99.90;;;;;;5068796;28;20044;-60
2021/12/16 08:26:33;;;;;;;9.13;8.10;;;5.30;99.90;;;;;;5070944;28;20025;-60
2021/12/16 08:28:59;;;;;;;8.77;7.88;;;5.70;99.90;;;;;;5069898;28;20028;-61
2021/12/16 08:31:26;;;;;;;10.35;9.35;;;5.60;99.90;;;;;;5072192;28;20487;-60
2021/12/16 08:33:52;;;;;;;9.80;7.82;;;6.10;99.90;;;;;;5070803;28;20033;-60
2021/12/16 08:36:18;;;;;;;6.78;6.10;;;6.10;99.90;;;;;;5069092;28;20025;-60
2021/12/16 08:38:45;;;;;;;7.43;6.25;;;6.50;99.90;;;;;;5069516;28;20037;-60
2021/12/16 08:41:16;;;;;;;8.63;6.47;;;7.40;99.90;;;;;;5069619;28;20215;-60
2021/12/16 08:43:44;;;;;;;9.18;6.15;;;7.50;99.90;;;;;;5070405;28;20049;-58
2021/12/16 08:46:13;;;;;;;6.88;5.90;;;7.20;99.90;;;;;;5070718;28;20416;-60
2021/12/16 08:48:42;;;;;;;6.75;5.85;;;8.10;99.90;;;;;;5068639;28;20025;-60
2021/12/16 08:51:09;;;;;;;6.13;5.53;;;8.20;99.90;;;;;;5070274;28;20024;-60
2021/12/16 08:53:35;;;;;;;9.35;6.25;;;7.40;99.90;;;;;;5068796;28;20070;-61
2021/12/16 08:56:03;;;;;;;6.50;5.80;;;7.30;99.90;;;;;;5069491;28;20106;-60
2021/12/16 08:58:29;;;;;;;8.52;5.93;;;7.10;99.90;;;;;;5071948;28;20028;-60
2021/12/16 09:01:08;;;;;;;7.75;6.00;;;7.60;99.90;;;;;;5070868;28;20021;-61
2021/12/16 09:03:34;;;;;;;6.18;5.57;;;7.40;99.90;;;;;;5068561;28;20033;-61
2021/12/16 09:06:01;;;;;;;7.60;5.95;;;8.00;99.90;;;;;;5068866;28;20040;-60
2021/12/16 09:08:27;;;;;;;6.70;6.00;;;7.30;99.90;;;;;;5068930;28;20509;-61
2021/12/16 09:10:53;;;;;;;6.68;5.97;;;7.50;99.90;;;;;;5068293;28;20020;-61
2021/12/16 09:13:19;;;;;;;6.40;5.80;;;8.00;99.90;;;;;;5072442;28;20115;-60
2021/12/16 09:16:13;;;;;;;6.13;5.53;;;8.90;99.90;;;;;;5068474;28;20569;-60
2021/12/16 09:18:41;;;;;;;6.90;6.13;;;9.10;99.90;;;;;;5066807;28;20445;-60
2021/12/16 09:21:18;;;;;;;6.63;5.88;;;8.90;99.90;;;;;;5068593;28;20028;-60
2021/12/16 09:23:46;;;;;;;6.93;6.10;;;8.10;99.90;;;;;;5068474;28;20035;-61
2021/12/16 09:26:13;;;;;;;8.00;6.85;;;8.00;99.90;;;;;;5068928;28;20033;-60
2021/12/16 09:28:39;;;;;;;7.75;6.63;;;8.30;99.90;;;;;;5069817;28;20032;-61
2021/12/16 09:31:10;;;;;;;7.13;6.43;;;9.40;99.90;;;;;;5072181;28;20146;-61
2021/12/16 09:33:41;;;;;;;9.43;6.82;;;9.20;99.90;;;;;;5067864;28;20056;-61
2021/12/16 09:36:07;;;;;;;7.30;6.60;;;8.80;99.90;;;;;;5068119;28;20039;-60
2021/12/16 09:38:32;;;;;;;7.85;6.63;;;9.90;99.90;;;;;;5067751;28;20554;-60
2021/12/16 09:40:59;;;;;;;8.32;7.43;;;9.70;99.90;;;;;;5068109;28;20025;-61
2021/12/16 09:43:28;;;;;;;8.13;6.93;;;9.90;99.90;;;;;;5070811;28;20068;-61
2021/12/16 09:45:58;;;;;;;6.95;6.25;;;10.50;99.90;;;;;;5070779;28;20479;-61
2021/12/16 09:48:25;;;;;;;7.18;6.47;;;9.70;99.90;;;;;;5067093;28;20487;-60
2021/12/16 09:50:51;;;;;;;6.75;6.05;;;10.00;99.90;;;;;;5067674;28;20487;-60
2021/12/16 09:53:18;;;;;;;11.25;9.27;;;10.00;99.90;;;;;;5068078;28;20105;-60
2021/12/16 09:55:46;;;;;;;7.18;6.50;;;10.40;99.90;;;;;;5069104;28;20040;-60
2021/12/16 09:58:12;;;;;;;7.50;6.80;;;9.30;99.90;;;;;;5071394;28;20020;-61
2021/12/16 10:00:38;;;;;;;7.05;6.38;;;10.10;99.90;;;;;;5068119;28;20095;-60
2021/12/16 10:03:05;;;;;;;7.55;6.53;;;11.80;99.90;;;;;;5067399;28;20026;-61
2021/12/16 10:05:34;;;;;;;6.97;6.28;;;12.30;99.90;;;;;;5066901;28;20034;-61
2021/12/16 10:08:04;;;;;;;8.07;6.88;;;12.30;99.90;;;;;;5069340;28;20021;-61
2021/12/16 10:10:30;;;;;;;7.80;7.00;;;10.90;99.90;;;;;;5070308;28;20096;-61
2021/12/16 10:12:59;;;;;;;9.20;6.63;;;11.50;99.90;;;;;;5069454;28;20029;-61
2021/12/16 10:18:15;;;;;;;13.90;10.90;;;10.80;99.90;;;;;;5067588;28;20495;-61
2021/12/16 10:20:49;;;;;;;9.68;7.43;;;10.90;99.90;;;;;;5067406;28;20063;-60
2021/12/16 10:23:19;;;;;;;8.30;7.53;;;12.20;99.90;;;;;;5067083;28;20052;-61
2021/12/16 10:25:46;;;;;;;9.68;7.05;;;11.20;99.90;;;;;;5068457;28;20121;-60
2021/12/16 10:28:23;;;;;;;11.88;9.30;;;10.50;99.90;;;;;;5071295;28;20034;-60
2021/12/16 10:30:52;;;;;;;18.48;11.88;;;11.80;99.90;;;;;;5069731;28;20039;-60
2021/12/16 10:33:34;;;;;;;17.55;10.32;;;12.30;99.90;;;;;;5068214;28;20044;-57
2021/12/16 10:36:13;;;;;;;12.70;9.30;;;12.40;99.90;;;;;;5067637;28;20514;-61
2021/12/16 10:38:47;;;;;;;7.65;6.85;;;11.90;99.90;;;;;;5067262;28;20503;-60
2021/12/16 10:41:19;;;;;;;8.40;7.35;;;12.40;99.90;;;;;;5067021;28;20040;-61
2021/12/16 10:43:52;;;;;;;9.25;6.53;;;13.30;99.90;;;;;;5067603;28;20044;-60
2021/12/16 10:46:23;;;;;;;9.68;7.35;;;13.30;99.90;;;;;;5066811;28;20126;-58
2021/12/16 10:48:52;;;;;;;7.82;6.80;;;12.50;99.90;;;;;;5068195;28;20037;-60
2021/12/16 10:51:30;;;;;;;12.32;8.50;;;13.20;99.90;;;;;;5066918;28;20060;-59
2021/12/16 10:54:04;;;;;;;10.70;8.82;;;13.40;99.90;;;;;;5067201;28;20040;-59
2021/12/16 10:56:36;;;;;;;11.00;8.65;;;12.50;99.90;;;;;;5066962;28;20016;-59
2021/12/16 10:59:44;;;;;;;9.18;6.57;;;11.80;99.90;;;;;;5066973;28;20391;-59
2021/12/16 11:02:32;;;;;;;7.43;6.47;;;12.60;99.90;;;;;;5053680;28;20031;-58
2021/12/16 11:05:12;;;;;;;8.68;6.63;;;11.30;99.90;;;;;;5051238;28;20048;-57
2021/12/16 11:07:41;;;;;;;8.75;7.45;;;11.40;99.90;;;;;;5068163;28;20408;-58
2021/12/16 11:10:18;;;;;;;8.52;6.45;;;12.00;99.90;;;;;;5069914;28;20383;-58
2021/12/16 11:13:09;;;;;;;8.68;6.90;;;10.90;99.90;;;;;;5066688;28;20708;-58
2021/12/16 11:15:38;;;;;;;7.65;6.82;;;11.90;99.90;;;;;;5067035;28;20447;-58
2021/12/16 11:18:20;;;;;;;9.40;7.07;;;11.10;99.90;;;;;;5070861;28;20020;-58
2021/12/16 11:20:48;;;;;;;8.75;7.75;;;11.10;99.90;;;;;;5070527;28;20036;-57
2021/12/16 11:23:17;;;;;;;12.05;10.50;;;12.30;99.90;;;;;;5070442;28;20040;-56
2021/12/16 11:25:43;;;;;;;8.10;7.30;;;12.60;99.90;;;;;;5072424;28;20025;-56
2021/12/16 11:28:32;;;;;;;7.43;6.60;;;11.60;99.90;;;;;;5074497;28;20024;-57
2021/12/16 11:31:10;;;;;;;9.30;6.85;;;12.00;99.90;;;;;;5073665;28;20518;-59
2021/12/16 11:33:43;;;;;;;8.15;6.97;;;11.70;99.90;;;;;;5070768;28;20115;-58
2021/12/16 11:36:17;;;;;;;7.25;6.55;;;11.20;99.90;;;;;;5070609;28;20075;-58
2021/12/16 11:39:01;;;;;;;6.85;6.03;;;12.00;99.90;;;;;;5070293;28;20029;-58
2021/12/16 11:41:36;;;;;;;7.50;5.80;;;12.40;99.90;;;;;;5070574;28;20013;-58
2021/12/16 11:44:10;;;;;;;10.75;8.45;;;12.10;99.90;;;;;;5069987;28;20598;-57
2021/12/16 11:46:51;;;;;;;11.80;10.43;;;12.30;99.90;;;;;;5071967;28;20033;-58
2021/12/16 11:49:25;;;;;;;8.43;7.63;;;12.50;99.90;;;;;;5069890;28;20029;-59
2021/12/16 11:52:21;;;;;;;7.65;6.95;;;12.10;99.90;;;;;;5071304;28;20032;-58
2021/12/16 11:54:48;;;;;;;9.23;7.85;;;12.20;99.90;;;;;;5072310;28;20043;-60
2021/12/16 11:57:26;;;;;;;8.88;7.97;;;11.50;99.90;;;;;;5070224;28;20016;-59
2021/12/16 11:59:55;;;;;;;7.20;6.50;;;11.50;99.90;;;;;;5069937;28;20020;-60
2021/12/16 12:02:20;;;;;;;8.25;6.50;;;11.30;99.90;;;;;;5069883;28;20376;-60
2021/12/16 12:04:46;;;;;;;7.65;6.57;;;11.70;99.90;;;;;;5071426;28;20033;-59
2021/12/16 12:07:15;;;;;;;7.53;6.82;;;12.70;99.90;;;;;;5073107;28;20091;-58
2021/12/16 12:09:46;;;;;;;7.93;7.13;;;12.20;99.90;;;;;;5071137;28;20070;-59
2021/12/16 12:12:12;;;;;;;9.77;8.77;;;12.30;99.90;;;;;;5069738;28;20044;-59
2021/12/16 12:14:39;;;;;;;8.07;7.28;;;12.30;99.90;;;;;;5069528;28;20086;-59
2021/12/16 12:17:21;;;;;;;10.40;7.63;;;12.30;99.90;;;;;;5069937;28;20574;-59
2021/12/16 12:19:51;;;;;;;9.52;7.07;;;12.10;99.90;;;;;;5070436;28;20013;-60
2021/12/16 12:22:24;;;;;;;7.85;6.88;;;12.10;99.90;;;;;;5069930;28;20028;-59
2021/12/16 12:24:51;;;;;;;7.07;6.38;;;12.40;99.90;;;;;;5070224;28;20045;-59
2021/12/16 12:27:21;;;;;;;7.38;6.60;;;12.40;99.90;;;;;;5068211;28;20043;-59
2021/12/16 12:29:56;;;;;;;7.60;6.50;;;12.10;99.90;;;;;;5068704;28;20081;-59
2021/12/16 12:32:32;;;;;;;8.23;6.50;;;12.70;99.90;;;;;;5069216;28;20044;-59
2021/12/16 12:35:20;;;;;;;10.52;7.60;;;13.10;99.90;;;;;;5054793;28;20021;-59
2021/12/16 12:37:50;;;;;;;8.55;6.35;;;12.50;99.90;;;;;;5070247;28;20079;-59
2021/12/16 12:40:38;;;;;;;8.20;5.90;;;12.20;99.90;;;;;;5073085;28;20020;-60
2021/12/16 12:43:05;;;;;;;7.40;6.60;;;12.30;99.90;;;;;;5071336;28;20024;-59
2021/12/16 12:45:35;;;;;;;7.60;6.80;;;12.50;99.90;;;;;;5070766;28;20494;-60
2021/12/16 12:48:04;;;;;;;7.63;6.10;;;12.40;99.90;;;;;;5071237;28;20097;-59
2021/12/16 12:50:36;;;;;;;9.18;5.93;;;11.80;99.90;;;;;;5069193;28;20090;-60
2021/12/16 12:53:19;;;;;;;7.15;6.45;;;12.50;99.90;;;;;;5069323;28;20028;-59
2021/12/16 12:55:46;;;;;;;7.63;6.10;;;12.90;99.90;;;;;;5070037;28;20024;-60
2021/12/16 12:58:15;;;;;;;9.48;5.57;;;12.90;99.90;;;;;;5072164;28;20036;-60
2021/12/16 13:00:41;;;;;;;6.60;5.90;;;13.00;99.90;;;;;;5068910;28;20398;-60
2021/12/16 13:03:28;;;;;;;6.32;5.72;;;13.20;99.90;;;;;;5068992;28;20035;-60
2021/12/16 13:05:59;;;;;;;7.97;6.18;;;12.90;99.90;;;;;;5070405;28;20021;-59
2021/12/16 13:08:29;;;;;;;6.25;5.60;;;12.80;99.90;;;;;;5068366;28;20495;-59
2021/12/16 13:10:59;;;;;;;10.38;6.00;;;12.70;99.90;;;;;;5069144;28;20035;-59
2021/12/16 13:16:37;;;;;;;8.02;6.22;;;12.40;99.90;;;;;;5070013;28;20124;-60
2021/12/16 13:31:26;;;;;;;7.90;6.53;;;12.40;99.90;;;;;;5048737;28;20056;-60
2021/12/16 13:33:57;;;;;;;8.95;6.70;;;12.40;99.90;;;;;;5034423;28;20598;-60
2021/12/16 13:36:48;;;;;;;7.40;6.40;;;12.40;99.90;;;;;;5046146;28;20025;-60
2021/12/16 13:39:21;;;;;;;8.45;6.88;;;12.60;99.90;;;;;;5045004;28;20044;-60
2021/12/16 13:42:14;;;;;;;7.88;5.70;;;12.50;99.90;;;;;;5045647;28;20032;-60
2021/12/16 13:44:54;;;;;;;6.95;5.93;;;12.60;99.90;;;;;;5045915;28;20045;-60
2021/12/16 13:47:57;;;;;;;7.05;6.35;;;12.60;99.90;;;;;;5045947;28;20090;-59
2021/12/16 14:07:26;;;;;;;6.60;5.82;;;12.60;99.90;;;;;;4988702;28;20161;-60
2021/12/16 14:10:03;;;;;;;13.90;9.70;;;12.40;99.90;;;;;;4975447;28;20081;-59
2021/12/16 14:16:00;;;;;;;6.22;5.63;;;12.60;99.90;;;;;;4963739;28;20045;-59
2021/12/16 14:49:43;;;;;;;7.35;5.65;;;12.40;99.90;;;;;;4969488;28;20071;-60
2021/12/16 14:52:28;;;;;;;8.23;6.63;;;12.30;99.90;;;;;;4964385;28;20101;-60
2021/12/16 14:55:05;;;;;;;9.05;6.60;;;12.20;99.90;;;;;;4954710;29;20086;-59
2021/12/16 14:57:38;;;;;;;13.82;7.15;;;11.90;99.90;;;;;;4963102;28;20039;-60
2021/12/16 15:00:22;;;;;;;8.68;7.45;;;11.90;99.90;;;;;;4989670;28;20026;-60
2021/12/16 15:02:57;;;;;;;12.05;7.90;;;11.90;99.90;;;;;;4991254;28;20034;-60
2021/12/16 15:05:39;;;;;;;9.90;7.72;;;11.80;99.90;;;;;;4990048;28;20050;-59
2021/12/16 15:08:10;;;;;;;11.05;9.25;;;11.70;99.90;;;;;;4975594;28;20029;-60
2021/12/16 15:10:37;;;;;;;10.63;8.00;;;11.80;99.90;;;;;;4991040;28;20114;-60
2021/12/16 15:13:13;;;;;;;11.73;9.48;;;11.70;99.90;;;;;;4994145;28;20092;-59
2021/12/16 15:16:07;;;;;;;9.82;8.30;;;11.70;99.90;;;;;;4988968;28;20058;-60
2021/12/16 15:34:06;;;;;;;9.88;7.18;;;11.40;99.90;;;;;;4997841;28;20069;-60
2021/12/16 15:43:13;;;;;;;64.10;33.40;;;11.30;99.90;;;;;;5008534;28;20062;-64
2021/12/16 15:45:41;;;;;;;10.32;7.50;;;11.30;99.90;;;;;;5001232;28;20554;-59
2021/12/16 15:48:20;;;;;;;8.40;7.40;;;11.20;99.90;;;;;;5003055;28;20385;-59
2021/12/16 15:50:53;;;;;;;8.82;6.50;;;11.00;99.90;;;;;;4997185;28;20030;-59
2021/12/16 15:53:26;;;;;;;9.37;7.50;;;10.90;99.90;;;;;;5008604;28;20068;-59
2021/12/16 15:56:01;;;;;;;9.90;6.85;;;10.80;99.90;;;;;;4993123;28;20339;-60
2021/12/16 15:58:31;;;;;;;8.98;7.53;;;10.80;99.90;;;;;;5034402;28;20367;-59
2021/12/16 16:01:06;;;;;;;9.18;7.47;;;10.70;99.90;;;;;;5073299;28;20024;-60
2021/12/16 16:03:32;;;;;;;10.02;7.65;;;10.60;99.90;;;;;;5069164;28;20111;-60
2021/12/16 16:06:01;;;;;;;9.07;6.82;;;10.40;99.90;;;;;;5069948;28;20154;-60
2021/12/16 16:08:31;;;;;;;8.88;7.00;;;10.40;99.90;;;;;;5070070;28;20077;-61
2021/12/16 16:11:01;;;;;;;11.60;8.15;;;10.30;99.90;;;;;;5070125;28;20110;-60
2021/12/16 16:13:41;;;;;;;12.35;8.07;;;10.30;99.90;;;;;;5072893;28;20039;-60
2021/12/16 16:16:09;;;;;;;10.68;7.55;;;10.00;99.90;;;;;;5072437;28;20024;-60
2021/12/16 16:18:40;;;;;;;12.90;9.10;;;9.80;99.90;;;;;;5069702;28;20646;-59
2021/12/16 16:21:16;;;;;;;10.25;7.68;;;9.70;99.90;;;;;;5071009;28;20035;-60
2021/12/16 16:23:49;;;;;;;11.43;7.97;;;9.60;99.90;;;;;;5071019;28;20037;-60
2021/12/16 16:26:15;;;;;;;10.80;8.35;;;9.50;99.90;;;;;;5070328;28;20029;-60
2021/12/16 16:28:45;;;;;;;9.30;7.93;;;9.30;99.90;;;;;;5071307;28;20477;-60
2021/12/16 16:31:16;;;;;;;11.48;7.53;;;9.30;99.90;;;;;;5073561;28;20489;-59
2021/12/16 16:33:42;;;;;;;13.40;8.50;;;9.20;99.90;;;;;;5069523;28;20028;-59
2021/12/16 16:36:12;;;;;;;10.98;9.23;;;9.10;99.90;;;;;;5070803;28;20429;-60
2021/12/16 16:38:42;;;;;;;12.23;8.20;;;9.10;99.90;;;;;;5069836;28;20021;-60
2021/12/16 16:41:17;;;;;;;10.57;9.05;;;9.20;99.90;;;;;;5069176;28;20047;-60
2021/12/16 16:43:50;;;;;;;17.13;11.52;;;9.00;99.90;;;;;;5071188;28;20109;-60
2021/12/16 16:46:19;;;;;;;17.38;12.18;;;8.80;99.90;;;;;;5073127;28;20025;-60
2021/12/16 16:49:04;;;;;;;18.98;13.25;;;8.60;99.90;;;;;;5067622;28;20032;-59
2021/12/16 16:51:46;;;;;;;23.15;17.00;;;8.40;99.90;;;;;;5069589;28;20051;-59
2021/12/16 16:54:18;;;;;;;69.95;37.35;;;8.30;99.90;;;;;;5069151;28;20359;-60
2021/12/16 16:57:08;;;;;;;32.35;18.77;;;8.30;99.90;;;;;;5070410;28;20043;-60
2021/12/16 16:59:39;;;;;;;125.68;61.42;;;8.20;99.90;;;;;;5070509;28;20085;-60
2021/12/16 17:02:14;;;;;;;61.40;34.38;;;8.10;99.90;;;;;;5069479;28;20534;-60
2021/12/16 17:04:40;;;;;;;21.15;11.45;;;8.00;99.90;;;;;;5070368;28;20068;-60
2021/12/16 17:07:06;;;;;;;31.55;20.55;;;8.00;99.90;;;;;;5071291;28;20051;-60